首页
METAR-TAF:

METAR-TAF

机场 :

Shelby, 北卡罗来纳州, 美国

纬度: 35-15N, 经度: 081-36W, 海拔: 258米

当前天气观测

该预报发布于23分钟前的09:55 UTC
风速4节,风向东转东北
温度 19°C
湿度 100%
气压 1020 hPa
能見度: 16.1公里
散云层高于800英尺
散云层高于2200英尺
阴天层高于3400英尺

METAR: KEHO 260955Z AUTO 07004KT 10SM SCT008 SCT022 OVC034 19/19 A3012 RMK AO2 T01920185

时间: 06:18 (10:18 UTC)


TAF: 丢失

超过4000个机场的气象观测和天气预报(METAR&TAF报告)。

可查询的气象台以黄色和红色小点在地图上表示。

将鼠标移到小点上方,可查看气象台名称。

然后点击查看天气观测和预报。

如需切换地图:点击带黑十字的绿色按钮放大地图;点击带横线的绿色按钮缩小地图;或者点击绿色箭头查看邻近地区的地图。


METAR-TAF: